sensor_id;sensor_type;location;lat;lon;timestamp;pressure;altitude;pressure_sealevel;temperature;humidity
35443;BME280;21561;55.654;37.592;2023-03-03T00:00:46;97948.13;;;-1.62;100.00
35443;BME280;21561;55.654;37.592;2023-03-03T00:03:16;97953.94;;;-1.69;100.00
35443;BME280;21561;55.654;37.592;2023-03-03T00:05:43;97953.94;;;-1.69;100.00
35443;BME280;21561;55.654;37.592;2023-03-03T00:08:10;97940.44;;;-1.65;100.00
35443;BME280;21561;55.654;37.592;2023-03-03T00:10:45;97935.38;;;-1.64;100.00
35443;BME280;21561;55.654;37.592;2023-03-03T00:13:48;97923.56;;;-1.60;100.00
35443;BME280;21561;55.654;37.592;2023-03-03T00:16:31;97934.63;;;-1.57;100.00
35443;BME280;21561;55.654;37.592;2023-03-03T00:19:00;97927.03;;;-1.55;100.00
35443;BME280;21561;55.654;37.592;2023-03-03T00:24:15;97928.84;;;-1.45;100.00
35443;BME280;21561;55.654;37.592;2023-03-03T00:26:46;97922.09;;;-1.43;100.00
35443;BME280;21561;55.654;37.592;2023-03-03T00:29:46;97927.28;;;-1.35;100.00
35443;BME280;21561;55.654;37.592;2023-03-03T00:32:23;97925.56;;;-1.38;100.00
35443;BME280;21561;55.654;37.592;2023-03-03T00:34:53;97918.78;;;-1.36;100.00
35443;BME280;21561;55.654;37.592;2023-03-03T00:37:34;97915.44;;;-1.31;100.00
35443;BME280;21561;55.654;37.592;2023-03-03T00:40:15;97915.44;;;-1.31;100.00
35443;BME280;21561;55.654;37.592;2023-03-03T00:42:51;97899.38;;;-1.29;100.00
35443;BME280;21561;55.654;37.592;2023-03-03T00:45:57;97902.00;;;-1.21;100.00
35443;BME280;21561;55.654;37.592;2023-03-03T00:48:28;97890.06;;;-1.27;100.00
35443;BME280;21561;55.654;37.592;2023-03-03T00:50:57;97890.09;;;-1.25;100.00
35443;BME280;21561;55.654;37.592;2023-03-03T00:53:26;97886.66;;;-1.27;100.00
35443;BME280;21561;55.654;37.592;2023-03-03T00:55:55;97871.41;;;-1.24;100.00
35443;BME280;21561;55.654;37.592;2023-03-03T00:58:23;97873.13;;;-1.23;100.00
35443;BME280;21561;55.654;37.592;2023-03-03T01:00:52;97870.56;;;-1.25;100.00
35443;BME280;21561;55.654;37.592;2023-03-03T01:03:24;97867.19;;;-1.25;100.00
35443;BME280;21561;55.654;37.592;2023-03-03T01:05:52;97872.31;;;-1.21;100.00
35443;BME280;21561;55.654;37.592;2023-03-03T01:08:20;97868.94;;;-1.20;100.00
35443;BME280;21561;55.654;37.592;2023-03-03T01:10:53;97870.69;;;-1.14;100.00
35443;BME280;21561;55.654;37.592;2023-03-03T01:13:24;97866.41;;;-1.18;100.00
35443;BME280;21561;55.654;37.592;2023-03-03T01:15:52;97868.88;;;-1.24;100.00
35443;BME280;21561;55.654;37.592;2023-03-03T01:18:19;97857.88;;;-1.23;100.00
35443;BME280;21561;55.654;37.592;2023-03-03T01:20:46;97867.16;;;-1.27;100.00
35443;BME280;21561;55.654;37.592;2023-03-03T01:23:13;97862.88;;;-1.29;100.00
35443;BME280;21561;55.654;37.592;2023-03-03T01:25:40;97867.84;;;-1.42;100.00
35443;BME280;21561;55.654;37.592;2023-03-03T01:28:07;97867.78;;;-1.45;100.00
35443;BME280;21561;55.654;37.592;2023-03-03T01:30:34;97841.50;;;-1.47;100.00
35443;BME280;21561;55.654;37.592;2023-03-03T01:33:01;97852.53;;;-1.45;100.00
35443;BME280;21561;55.654;37.592;2023-03-03T01:35:28;97851.66;;;-1.47;100.00
35443;BME280;21561;55.654;37.592;2023-03-03T01:37:57;97855.06;;;-1.45;100.00
35443;BME280;21561;55.654;37.592;2023-03-03T01:40:27;97845.69;;;-1.47;100.00
35443;BME280;21561;55.654;37.592;2023-03-03T01:42:55;97852.44;;;-1.51;100.00
35443;BME280;21561;55.654;37.592;2023-03-03T01:45:30;97838.06;;;-1.47;100.00
35443;BME280;21561;55.654;37.592;2023-03-03T01:48:03;97832.97;;;-1.50;100.00
35443;BME280;21561;55.654;37.592;2023-03-03T01:53:22;97858.44;;;-1.49;100.00
35443;BME280;21561;55.654;37.592;2023-03-03T01:55:53;97848.25;;;-1.49;100.00
35443;BME280;21561;55.654;37.592;2023-03-03T01:58:34;97856.81;;;-1.41;100.00
35443;BME280;21561;55.654;37.592;2023-03-03T02:01:10;97852.53;;;-1.45;100.00
35443;BME280;21561;55.654;37.592;2023-03-03T02:03:39;97842.34;;;-1.45;100.00
35443;BME280;21561;55.654;37.592;2023-03-03T02:06:12;97837.31;;;-1.42;100.00
35443;BME280;21561;55.654;37.592;2023-03-03T02:08:59;97844.97;;;-1.37;100.00
35443;BME280;21561;55.654;37.592;2023-03-03T02:11:29;97839.84;;;-1.40;100.00
35443;BME280;21561;55.654;37.592;2023-03-03T02:13:58;97830.53;;;-1.40;100.00
35443;BME280;21561;55.654;37.592;2023-03-03T02:16:25;97841.56;;;-1.39;100.00
35443;BME280;21561;55.654;37.592;2023-03-03T02:18:52;97831.38;;;-1.39;100.00
35443;BME280;21561;55.654;37.592;2023-03-03T02:21:21;97817.84;;;-1.35;100.00
35443;BME280;21561;55.654;37.592;2023-03-03T02:26:25;97824.66;;;-1.34;100.00
35443;BME280;21561;55.654;37.592;2023-03-03T02:28:52;97810.25;;;-1.33;100.00
35443;BME280;21561;55.654;37.592;2023-03-03T02:31:22;97803.47;;;-1.31;100.00
35443;BME280;21561;55.654;37.592;2023-03-03T02:33:51;97799.25;;;-1.32;100.00
35443;BME280;21561;55.654;37.592;2023-03-03T02:36:24;97792.41;;;-1.38;100.00
35443;BME280;21561;55.654;37.592;2023-03-03T02:39:14;97790.75;;;-1.35;100.00
35443;BME280;21561;55.654;37.592;2023-03-03T02:44:12;97794.03;;;-1.45;100.00
35443;BME280;21561;55.654;37.592;2023-03-03T02:46:42;97780.47;;;-1.42;100.00
35443;BME280;21561;55.654;37.592;2023-03-03T02:49:12;97785.53;;;-1.44;100.00
35443;BME280;21561;55.654;37.592;2023-03-03T02:51:39;97783.88;;;-1.43;100.00
35443;BME280;21561;55.654;37.592;2023-03-03T02:54:08;97772.00;;;-1.41;100.00
35443;BME280;21561;55.654;37.592;2023-03-03T02:56:36;97776.25;;;-1.39;100.00
35443;BME280;21561;55.654;37.592;2023-03-03T02:59:03;97769.50;;;-1.37;100.00
35443;BME280;21561;55.654;37.592;2023-03-03T03:01:30;97771.22;;;-1.36;100.00
35443;BME280;21561;55.654;37.592;2023-03-03T03:04:12;97771.22;;;-1.34;100.00
35443;BME280;21561;55.654;37.592;2023-03-03T03:06:40;97761.06;;;-1.32;100.00
35443;BME280;21561;55.654;37.592;2023-03-03T03:09:08;97759.34;;;-1.35;100.00
35443;BME280;21561;55.654;37.592;2023-03-03T03:11:35;97776.28;;;-1.37;100.00
35443;BME280;21561;55.654;37.592;2023-03-03T03:14:04;97764.41;;;-1.37;100.00
35443;BME280;21561;55.654;37.592;2023-03-03T03:16:32;97760.19;;;-1.36;100.00
35443;BME280;21561;55.654;37.592;2023-03-03T03:19:00;97762.66;;;-1.41;100.00
35443;BME280;21561;55.654;37.592;2023-03-03T03:21:27;97765.16;;;-1.47;100.00
35443;BME280;21561;55.654;37.592;2023-03-03T03:23:54;97764.31;;;-1.49;100.00
35443;BME280;21561;55.654;37.592;2023-03-03T03:26:21;97762.63;;;-1.47;100.00
35443;BME280;21561;55.654;37.592;2023-03-03T03:28:49;97759.19;;;-1.52;100.00
35443;BME280;21561;55.654;37.592;2023-03-03T03:31:18;97760.03;;;-1.50;100.00
35443;BME280;21561;55.654;37.592;2023-03-03T03:33:45;97763.44;;;-1.49;100.00
35443;BME280;21561;55.654;37.592;2023-03-03T03:36:13;97760.91;;;-1.48;100.00
35443;BME280;21561;55.654;37.592;2023-03-03T03:38:40;97762.59;;;-1.50;100.00
35443;BME280;21561;55.654;37.592;2023-03-03T03:41:07;97763.41;;;-1.54;100.00
35443;BME280;21561;55.654;37.592;2023-03-03T03:43:34;97744.75;;;-1.51;100.00
35443;BME280;21561;55.654;37.592;2023-03-03T03:46:01;97749.81;;;-1.55;100.00
35443;BME280;21561;55.654;37.592;2023-03-03T03:48:27;97743.91;;;-1.52;100.00
35443;BME280;21561;55.654;37.592;2023-03-03T03:50:54;97760.88;;;-1.51;100.00
35443;BME280;21561;55.654;37.592;2023-03-03T03:53:21;97747.31;;;-1.50;100.00
35443;BME280;21561;55.654;37.592;2023-03-03T03:55:48;97748.19;;;-1.48;100.00
35443;BME280;21561;55.654;37.592;2023-03-03T03:58:16;97761.75;;;-1.49;100.00
35443;BME280;21561;55.654;37.592;2023-03-03T04:00:44;97747.34;;;-1.47;100.00
35443;BME280;21561;55.654;37.592;2023-03-03T04:03:12;97733.78;;;-1.46;100.00
35443;BME280;21561;55.654;37.592;2023-03-03T04:05:42;97751.56;;;-1.47;100.00
35443;BME280;21561;55.654;37.592;2023-03-03T04:08:09;97732.09;;;-1.44;100.00
35443;BME280;21561;55.654;37.592;2023-03-03T04:10:36;97730.41;;;-1.45;100.00
35443;BME280;21561;55.654;37.592;2023-03-03T04:13:03;97731.25;;;-1.44;100.00
35443;BME280;21561;55.654;37.592;2023-03-03T04:15:30;97726.16;;;-1.44;100.00
35443;BME280;21561;55.654;37.592;2023-03-03T04:17:57;97730.41;;;-1.45;100.00
35443;BME280;21561;55.654;37.592;2023-03-03T04:20:24;97721.16;;;-1.40;100.00
35443;BME280;21561;55.654;37.592;2023-03-03T04:22:50;97736.34;;;-1.44;100.00
35443;BME280;21561;55.654;37.592;2023-03-03T04:25:18;97721.06;;;-1.49;100.00
35443;BME280;21561;55.654;37.592;2023-03-03T04:27:45;97718.50;;;-1.49;100.00
35443;BME280;21561;55.654;37.592;2023-03-03T04:30:13;97718.47;;;-1.52;100.00
35443;BME280;21561;55.654;37.592;2023-03-03T04:32:41;97724.38;;;-1.56;100.00
35443;BME280;21561;55.654;37.592;2023-03-03T04:35:08;97723.50;;;-1.60;100.00
35443;BME280;21561;55.654;37.592;2023-03-03T04:37:36;97721.78;;;-1.61;100.00
35443;BME280;21561;55.654;37.592;2023-03-03T04:40:06;97721.78;;;-1.59;100.00
35443;BME280;21561;55.654;37.592;2023-03-03T04:42:34;97742.19;;;-1.56;100.00
35443;BME280;21561;55.654;37.592;2023-03-03T04:45:01;97725.22;;;-1.56;100.00
35443;BME280;21561;55.654;37.592;2023-03-03T04:47:29;97738.72;;;-1.61;100.00
35443;BME280;21561;55.654;37.592;2023-03-03T04:49:56;97740.41;;;-1.60;100.00
35443;BME280;21561;55.654;37.592;2023-03-03T04:52:23;97723.47;;;-1.61;100.00
35443;BME280;21561;55.654;37.592;2023-03-03T04:54:50;97731.94;;;-1.62;100.00
35443;BME280;21561;55.654;37.592;2023-03-03T04:57:17;97725.16;;;-1.63;100.00
35443;BME280;21561;55.654;37.592;2023-03-03T04:59:43;97720.06;;;-1.60;100.00
35443;BME280;21561;55.654;37.592;2023-03-03T05:02:10;97738.72;;;-1.61;100.00
35443;BME280;21561;55.654;37.592;2023-03-03T05:04:38;97719.22;;;-1.62;100.00
35443;BME280;21561;55.654;37.592;2023-03-03T05:07:05;97737.88;;;-1.60;100.00
35443;BME280;21561;55.654;37.592;2023-03-03T05:09:32;97726.03;;;-1.60;100.00
35443;BME280;21561;55.654;37.592;2023-03-03T05:11:59;97723.53;;;-1.55;100.00
35443;BME280;21561;55.654;37.592;2023-03-03T05:14:26;97737.09;;;-1.56;100.00
35443;BME280;21561;55.654;37.592;2023-03-03T05:16:53;97723.59;;;-1.49;100.00
35443;BME280;21561;55.654;37.592;2023-03-03T05:19:20;97743.88;;;-1.55;100.00
35443;BME280;21561;55.654;37.592;2023-03-03T05:21:47;97738.75;;;-1.57;100.00
35443;BME280;21561;55.654;37.592;2023-03-03T05:24:14;97738.78;;;-1.55;100.00
35443;BME280;21561;55.654;37.592;2023-03-03T05:26:41;97737.13;;;-1.51;100.00
35443;BME280;21561;55.654;37.592;2023-03-03T05:29:08;97731.22;;;-1.50;100.00
35443;BME280;21561;55.654;37.592;2023-03-03T05:31:35;97728.66;;;-1.52;100.00
35443;BME280;21561;55.654;37.592;2023-03-03T05:34:02;97727.00;;;-1.47;100.00
35443;BME280;21561;55.654;37.592;2023-03-03T05:36:29;97759.22;;;-1.49;100.00
35443;BME280;21561;55.654;37.592;2023-03-03T05:38:56;97725.28;;;-1.49;100.00
35443;BME280;21561;55.654;37.592;2023-03-03T05:41:23;97730.38;;;-1.48;100.00
35443;BME280;21561;55.654;37.592;2023-03-03T05:43:50;97727.78;;;-1.51;100.00
35443;BME280;21561;55.654;37.592;2023-03-03T05:46:16;97731.22;;;-1.49;100.00
35443;BME280;21561;55.654;37.592;2023-03-03T05:48:43;97765.94;;;-1.54;100.00
35443;BME280;21561;55.654;37.592;2023-03-03T05:51:10;97739.66;;;-1.51;100.00
35443;BME280;21561;55.654;37.592;2023-03-03T05:53:37;97732.09;;;-1.44;100.00
35443;BME280;21561;55.654;37.592;2023-03-03T05:56:05;97761.75;;;-1.50;100.00
35443;BME280;21561;55.654;37.592;2023-03-03T05:58:32;97726.13;;;-1.47;100.00
35443;BME280;21561;55.654;37.592;2023-03-03T06:00:58;97738.00;;;-1.49;100.00
35443;BME280;21561;55.654;37.592;2023-03-03T06:03:25;97743.94;;;-1.49;100.00
35443;BME280;21561;55.654;37.592;2023-03-03T06:05:52;97756.69;;;-1.44;100.00
35443;BME280;21561;55.654;37.592;2023-03-03T06:08:19;97746.53;;;-1.44;100.00
35443;BME280;21561;55.654;37.592;2023-03-03T06:10:46;97730.44;;;-1.43;100.00
35443;BME280;21561;55.654;37.592;2023-03-03T06:13:13;97738.94;;;-1.40;100.00
35443;BME280;21561;55.654;37.592;2023-03-03T06:15:40;97738.94;;;-1.40;100.00
35443;BME280;21561;55.654;37.592;2023-03-03T06:18:07;97739.84;;;-1.35;100.00
35443;BME280;21561;55.654;37.592;2023-03-03T06:20:35;97749.22;;;-1.29;100.00
35443;BME280;21561;55.654;37.592;2023-03-03T06:23:02;97747.50;;;-1.31;100.00
35443;BME280;21561;55.654;37.592;2023-03-03T06:25:29;97744.94;;;-1.31;100.00
35443;BME280;21561;55.654;37.592;2023-03-03T06:27:56;97740.75;;;-1.26;100.00
35443;BME280;21561;55.654;37.592;2023-03-03T06:30:22;97735.63;;;-1.29;100.00
35443;BME280;21561;55.654;37.592;2023-03-03T06:32:49;97742.41;;;-1.31;100.00
35443;BME280;21561;55.654;37.592;2023-03-03T06:35:16;97755.97;;;-1.32;100.00
35443;BME280;21561;55.654;37.592;2023-03-03T06:37:43;97742.44;;;-1.28;100.00
35443;BME280;21561;55.654;37.592;2023-03-03T06:40:11;97751.81;;;-1.24;100.00
35443;BME280;21561;55.654;37.592;2023-03-03T06:42:38;97747.56;;;-1.22;100.00
35443;BME280;21561;55.654;37.592;2023-03-03T06:45:05;97755.25;;;-1.18;100.00
35443;BME280;21561;55.654;37.592;2023-03-03T06:47:32;97740.84;;;-1.17;100.00
35443;BME280;21561;55.654;37.592;2023-03-03T06:49:59;97740.91;;;-1.11;100.00
35443;BME280;21561;55.654;37.592;2023-03-03T06:52:26;97742.63;;;-1.07;100.00
35443;BME280;21561;55.654;37.592;2023-03-03T06:54:56;97747.75;;;-1.01;100.00
35443;BME280;21561;55.654;37.592;2023-03-03T06:57:33;97755.41;;;-0.99;100.00
35443;BME280;21561;55.654;37.592;2023-03-03T07:02:42;97747.84;;;-0.94;100.00
35443;BME280;21561;55.654;37.592;2023-03-03T07:05:13;97763.06;;;-0.98;100.00
35443;BME280;21561;55.654;37.592;2023-03-03T07:07:40;97743.56;;;-0.99;100.00
35443;BME280;21561;55.654;37.592;2023-03-03T07:13:15;97754.56;;;-1.00;100.00
35443;BME280;21561;55.654;37.592;2023-03-03T07:15:42;97752.84;;;-1.04;100.00
35443;BME280;21561;55.654;37.592;2023-03-03T07:18:42;97758.84;;;-0.99;100.00
35443;BME280;21561;55.654;37.592;2023-03-03T07:21:16;97752.84;;;-1.04;100.00
35443;BME280;21561;55.654;37.592;2023-03-03T07:23:44;97764.72;;;-1.03;100.00
35443;BME280;21561;55.654;37.592;2023-03-03T07:26:14;97746.06;;;-1.02;100.00
35443;BME280;21561;55.654;37.592;2023-03-03T07:28:42;97764.72;;;-1.03;99.47
35443;BME280;21561;55.654;37.592;2023-03-03T07:31:32;97762.25;;;-0.95;99.50
35443;BME280;21561;55.654;37.592;2023-03-03T07:34:01;97755.41;;;-0.99;99.38
35443;BME280;21561;55.654;37.592;2023-03-03T07:36:34;97759.72;;;-0.93;98.96
35443;BME280;21561;55.654;37.592;2023-03-03T07:42:02;97755.50;;;-0.90;99.35
35443;BME280;21561;55.654;37.592;2023-03-03T07:44:38;97756.38;;;-0.89;99.25
35443;BME280;21561;55.654;37.592;2023-03-03T07:47:25;97764.91;;;-0.84;98.40
35443;BME280;21561;55.654;37.592;2023-03-03T07:49:54;97768.25;;;-0.88;98.72
35443;BME280;21561;55.654;37.592;2023-03-03T07:52:41;97764.00;;;-0.89;98.85
35443;BME280;21561;55.654;37.592;2023-03-03T07:55:34;97769.97;;;-0.87;98.65
35443;BME280;21561;55.654;37.592;2023-03-03T08:03:15;97774.16;;;-0.91;98.67
35443;BME280;21561;55.654;37.592;2023-03-03T08:05:48;97771.66;;;-0.89;98.56
35443;BME280;21561;55.654;37.592;2023-03-03T08:08:33;97774.16;;;-0.91;98.66
35443;BME280;21561;55.654;37.592;2023-03-03T08:11:03;97778.41;;;-0.91;98.72
35443;BME280;21561;55.654;37.592;2023-03-03T08:16:17;97785.28;;;-0.84;97.79
35443;BME280;21561;55.654;37.592;2023-03-03T08:18:49;97780.19;;;-0.84;97.89
35443;BME280;21561;55.654;37.592;2023-03-03T08:21:21;97770.84;;;-0.79;97.58
35443;BME280;21561;55.654;37.592;2023-03-03T08:23:48;97798.06;;;-0.72;96.27
35443;BME280;21561;55.654;37.592;2023-03-03T08:26:21;97779.47;;;-0.66;95.49
35443;BME280;21561;55.654;37.592;2023-03-03T08:28:48;97781.22;;;-0.56;95.28
35443;BME280;21561;55.654;37.592;2023-03-03T08:31:15;97787.13;;;-0.63;95.75
35443;BME280;21561;55.654;37.592;2023-03-03T08:34:03;97785.41;;;-0.66;98.58
35443;BME280;21561;55.654;37.592;2023-03-03T08:36:30;97785.38;;;-0.69;99.22
35443;BME280;21561;55.654;37.592;2023-03-03T08:39:00;97797.28;;;-0.68;100.00
35443;BME280;21561;55.654;37.592;2023-03-03T08:41:27;97770.06;;;-0.72;100.00
35443;BME280;21561;55.654;37.592;2023-03-03T08:43:54;97780.25;;;-0.75;100.00
35443;BME280;21561;55.654;37.592;2023-03-03T08:46:20;97774.34;;;-0.69;100.00
35443;BME280;21561;55.654;37.592;2023-03-03T08:48:47;97770.16;;;-0.58;100.00
35443;BME280;21561;55.654;37.592;2023-03-03T08:51:15;97789.69;;;-0.60;100.00
35443;BME280;21561;55.654;37.592;2023-03-03T08:53:42;97790.59;;;-0.55;100.00
35443;BME280;21561;55.654;37.592;2023-03-03T08:56:08;97791.50;;;-0.48;100.00
35443;BME280;21561;55.654;37.592;2023-03-03T08:58:36;97787.25;;;-0.46;100.00
35443;BME280;21561;55.654;37.592;2023-03-03T09:01:03;97806.78;;;-0.45;99.53
35443;BME280;21561;55.654;37.592;2023-03-03T09:03:30;97819.50;;;-0.51;99.55
35443;BME280;21561;55.654;37.592;2023-03-03T09:05:57;97805.88;;;-0.53;99.92
35443;BME280;21561;55.654;37.592;2023-03-03T09:08:24;97799.09;;;-0.51;99.51
35443;BME280;21561;55.654;37.592;2023-03-03T09:10:51;97785.50;;;-0.50;99.07
35443;BME280;21561;55.654;37.592;2023-03-03T09:13:18;97795.75;;;-0.46;98.47
35443;BME280;21561;55.654;37.592;2023-03-03T09:15:46;97786.41;;;-0.44;98.28
35443;BME280;21561;55.654;37.592;2023-03-03T09:18:18;97800.03;;;-0.40;98.83
35443;BME280;21561;55.654;37.592;2023-03-03T09:20:48;97797.50;;;-0.37;98.20
35443;BME280;21561;55.654;37.592;2023-03-03T09:25:51;97800.94;;;-0.29;98.46
35443;BME280;21561;55.654;37.592;2023-03-03T09:30:53;97802.75;;;-0.15;97.98
35443;BME280;21561;55.654;37.592;2023-03-03T09:33:41;97795.97;;;-0.10;98.12
35443;BME280;21561;55.654;37.592;2023-03-03T09:38:43;97791.69;;;-0.16;97.94
35443;BME280;21561;55.654;37.592;2023-03-03T09:41:45;97787.50;;;-0.06;98.18
35443;BME280;21561;55.654;37.592;2023-03-03T09:47:01;97785.78;;;-0.10;97.65
35443;BME280;21561;55.654;37.592;2023-03-03T10:06:12;97823.22;;;0.02;92.94
35443;BME280;21561;55.654;37.592;2023-03-03T10:12:08;97798.56;;;-0.01;93.47
35443;BME280;21561;55.654;37.592;2023-03-03T10:17:21;97790.94;;;0.02;93.77
35443;BME280;21561;55.654;37.592;2023-03-03T10:25:27;97798.56;;;-0.03;94.35
35443;BME280;21561;55.654;37.592;2023-03-03T10:36:51;97779.06;;;0.07;91.72
35443;BME280;21561;55.654;37.592;2023-03-03T10:48:04;97794.56;;;0.60;86.52
35443;BME280;21561;55.654;37.592;2023-03-03T10:50:49;97787.72;;;0.46;86.79
35443;BME280;21561;55.654;37.592;2023-03-03T11:07:10;97794.38;;;0.07;88.79
35443;BME280;21561;55.654;37.592;2023-03-03T11:23:25;97801.22;;;0.21;91.38
35443;BME280;21561;55.654;37.592;2023-03-03T11:26:16;97792.78;;;0.31;90.63
35443;BME280;21561;55.654;37.592;2023-03-03T11:40:58;97797.78;;;0.15;88.83
35443;BME280;21561;55.654;37.592;2023-03-03T11:43:46;97807.16;;;0.15;87.76
35443;BME280;21561;55.654;37.592;2023-03-03T11:46:21;97799.50;;;0.16;88.57
35443;BME280;21561;55.654;37.592;2023-03-03T11:52:04;97806.34;;;0.24;88.02
35443;BME280;21561;55.654;37.592;2023-03-03T11:54:51;97809.75;;;0.26;87.63
35443;BME280;21561;55.654;37.592;2023-03-03T11:57:29;97797.00;;;0.30;88.02
35443;BME280;21561;55.654;37.592;2023-03-03T12:05:29;97811.41;;;0.17;88.23
35443;BME280;21561;55.654;37.592;2023-03-03T12:11:07;97819.06;;;0.19;88.94
35443;BME280;21561;55.654;37.592;2023-03-03T12:19:33;97819.06;;;0.19;89.06
35443;BME280;21561;55.654;37.592;2023-03-03T12:25:19;97809.72;;;0.19;88.88
35443;BME280;21561;55.654;37.592;2023-03-03T12:44:50;97816.50;;;0.14;89.62
35443;BME280;21561;55.654;37.592;2023-03-03T12:52:49;97823.31;;;0.18;88.39
35443;BME280;21561;55.654;37.592;2023-03-03T13:01:09;97826.72;;;0.21;87.73
35443;BME280;21561;55.654;37.592;2023-03-03T13:11:41;97822.47;;;0.18;86.48
35443;BME280;21561;55.654;37.592;2023-03-03T13:14:45;97820.78;;;0.23;86.03
35443;BME280;21561;55.654;37.592;2023-03-03T13:17:20;97816.53;;;0.21;85.67
35443;BME280;21561;55.654;37.592;2023-03-03T13:20:01;97821.69;;;0.33;84.81
35443;BME280;21561;55.654;37.592;2023-03-03T13:22:45;97805.56;;;0.40;84.79
35443;BME280;21561;55.654;37.592;2023-03-03T13:25:33;97815.78;;;0.46;83.21
35443;BME280;21561;55.654;37.592;2023-03-03T13:28:12;97822.59;;;0.46;82.11
35443;BME280;21561;55.654;37.592;2023-03-03T13:30:49;97805.59;;;0.48;82.68
35443;BME280;21561;55.654;37.592;2023-03-03T13:33:35;97809.84;;;0.47;82.65
35443;BME280;21561;55.654;37.592;2023-03-03T13:36:08;97812.38;;;0.43;81.26
35443;BME280;21561;55.654;37.592;2023-03-03T13:38:56;97804.69;;;0.41;82.48
35443;BME280;21561;55.654;37.592;2023-03-03T13:41:38;97817.47;;;0.36;82.11
35443;BME280;21561;55.654;37.592;2023-03-03T13:44:39;97805.53;;;0.35;82.57
35443;BME280;21561;55.654;37.592;2023-03-03T13:47:37;97806.41;;;0.36;82.71
35443;BME280;21561;55.654;37.592;2023-03-03T13:50:35;97801.28;;;0.33;81.24
35443;BME280;21561;55.654;37.592;2023-03-03T13:56:11;97799.59;;;0.35;81.58
35443;BME280;21561;55.654;37.592;2023-03-03T14:05:00;97782.59;;;0.42;80.61
35443;BME280;21561;55.654;37.592;2023-03-03T14:07:39;97792.81;;;0.49;80.69
35443;BME280;21561;55.654;37.592;2023-03-03T14:10:24;97795.38;;;0.48;80.10
35443;BME280;21561;55.654;37.592;2023-03-03T14:15:49;97808.94;;;0.39;79.71
35443;BME280;21561;55.654;37.592;2023-03-03T14:18:29;97804.72;;;0.38;80.22
35443;BME280;21561;55.654;37.592;2023-03-03T14:21:10;97805.56;;;0.38;80.67
35443;BME280;21561;55.654;37.592;2023-03-03T14:23:52;97806.41;;;0.36;79.95
35443;BME280;21561;55.654;37.592;2023-03-03T14:26:24;97807.25;;;0.35;79.96
35443;BME280;21561;55.654;37.592;2023-03-03T14:29:03;97811.50;;;0.39;79.98
35443;BME280;21561;55.654;37.592;2023-03-03T14:31:41;97826.81;;;0.36;80.08
35443;BME280;21561;55.654;37.592;2023-03-03T14:36:57;97831.03;;;0.35;79.98
35443;BME280;21561;55.654;37.592;2023-03-03T14:39:38;97820.84;;;0.31;79.47
35443;BME280;21561;55.654;37.592;2023-03-03T14:42:13;97815.72;;;0.31;79.49
35443;BME280;21561;55.654;37.592;2023-03-03T14:44:54;97819.13;;;0.30;80.11
35443;BME280;21561;55.654;37.592;2023-03-03T14:47:22;97822.47;;;0.19;79.65
35443;BME280;21561;55.654;37.592;2023-03-03T14:49:56;97826.72;;;0.21;79.64
35443;BME280;21561;55.654;37.592;2023-03-03T14:52:28;97828.44;;;0.22;79.61
35443;BME280;21561;55.654;37.592;2023-03-03T14:54:58;97823.34;;;0.22;80.06
35443;BME280;21561;55.654;37.592;2023-03-03T15:03:32;97819.13;;;0.25;79.75
35443;BME280;21561;55.654;37.592;2023-03-03T15:05:55;97828.47;;;0.26;80.11
35443;BME280;21561;55.654;37.592;2023-03-03T15:08:36;97827.59;;;0.24;80.06
35443;BME280;21561;55.654;37.592;2023-03-03T15:11:19;97832.72;;;0.26;79.71
35443;BME280;21561;55.654;37.592;2023-03-03T15:13:46;97828.44;;;0.22;79.73
35443;BME280;21561;55.654;37.592;2023-03-03T15:16:23;97831.88;;;0.30;79.87
35443;BME280;21561;55.654;37.592;2023-03-03T15:21:29;97832.69;;;0.24;79.63
35443;BME280;21561;55.654;37.592;2023-03-03T15:26:43;97836.94;;;0.21;79.47
35443;BME280;21561;55.654;37.592;2023-03-03T15:29:33;97838.66;;;0.22;79.12
35443;BME280;21561;55.654;37.592;2023-03-03T15:32:28;97836.97;;;0.30;80.08
35443;BME280;21561;55.654;37.592;2023-03-03T15:38:02;97843.75;;;0.25;79.52
35443;BME280;21561;55.654;37.592;2023-03-03T15:45:45;97841.19;;;0.25;80.15
35443;BME280;21561;55.654;37.592;2023-03-03T15:57:04;97838.66;;;0.25;79.19
35443;BME280;21561;55.654;37.592;2023-03-03T16:02:21;97837.81;;;0.24;79.10
35443;BME280;21561;55.654;37.592;2023-03-03T16:08:09;97836.94;;;0.27;79.27
35443;BME280;21561;55.654;37.592;2023-03-03T16:11:08;97830.19;;;0.29;79.39
35443;BME280;21561;55.654;37.592;2023-03-03T16:17:23;97839.50;;;0.27;79.42
35443;BME280;21561;55.654;37.592;2023-03-03T16:22:52;97842.94;;;0.33;79.73
35443;BME280;21561;55.654;37.592;2023-03-03T16:31:10;97837.81;;;0.30;79.17
35443;BME280;21561;55.654;37.592;2023-03-03T16:34:03;97839.53;;;0.30;78.68
35443;BME280;21561;55.654;37.592;2023-03-03T16:39:11;97836.16;;;0.32;79.28
35443;BME280;21561;55.654;37.592;2023-03-03T16:41:50;97833.59;;;0.34;79.00
35443;BME280;21561;55.654;37.592;2023-03-03T16:46:48;97837.84;;;0.29;78.41
35443;BME280;21561;55.654;37.592;2023-03-03T16:49:32;97832.72;;;0.32;79.13
35443;BME280;21561;55.654;37.592;2023-03-03T16:52:12;97826.75;;;0.27;78.89
35443;BME280;21561;55.654;37.592;2023-03-03T16:54:47;97829.31;;;0.28;78.90
35443;BME280;21561;55.654;37.592;2023-03-03T17:00:11;97832.75;;;0.33;79.50
35443;BME280;21561;55.654;37.592;2023-03-03T17:08:10;97829.34;;;0.31;79.46
35443;BME280;21561;55.654;37.592;2023-03-03T17:11:08;97823.38;;;0.28;80.17
35443;BME280;21561;55.654;37.592;2023-03-03T17:16:29;97825.03;;;0.16;80.64
35443;BME280;21561;55.654;37.592;2023-03-03T17:24:44;97829.22;;;0.04;80.05
35443;BME280;21561;55.654;37.592;2023-03-03T17:29:52;97821.53;;;0.02;80.27
35443;BME280;21561;55.654;37.592;2023-03-03T17:43:14;97818.91;;;-0.12;80.65
35443;BME280;21561;55.654;37.592;2023-03-03T17:45:44;97821.47;;;-0.10;81.46
35443;BME280;21561;55.654;37.592;2023-03-03T17:57:39;97823.09;;;-0.18;80.88
35443;BME280;21561;55.654;37.592;2023-03-03T18:04:02;97829.06;;;-0.21;81.39